Marquette, MI (49855)

7:44 AM EST on December 20, 2014 (GMT -0500)
NOS_NWLON Marquette C.G., MI NWLON | Change Station
CLOSE
Current Station
Personal Weather Station
Location: Marquette, MI
Elevation: 615 ft
Nearby Weather Stations

Elev 615 ft 46.55 °N, 87.38 °W | Updated 2 hours ago

Fog
Fog
22 °F
Feels Like 22 °F
N
3
Wind Variable Wind from SW
Gusts 6.0 mph

Today
High -- | Low -- °F
--% Chance of Precip.
Yesterday
High -- | Low -- °F
Precip. -- in
8:29 AM 5:04 PM
Waning Crescent, 3% visible
Pressure 30.21 in
Visibility 10.0 miles
Clouds Overcast 8500 ft
Windchill 22 °F
Dew Point Not available.
Humidity Not available.
Rainfall -999.00 in
Snow Depth Not available.
UV 0 out of 12
Pollen .10 out of 12
Air Quality Not available.
Flu Activity Not available.
SPECI KSAW 201230Z 20003KT 10SM OVC085 M13/M15 A3021

More Conditions Fewer Conditions

Pressure 30.21 in
Visibility 10.0 miles
Clouds Overcast 8500 ft
Windchill 22 °F
Dew Point Not available.
Humidity Not available.
Rainfall -999.00 in
Snow Depth Not available.
UV 0 out of 12
Pollen .10 out of 12
Air Quality Not available.
Flu Activity Not available.
SPECI KSAW 201230Z 20003KT 10SM OVC085 M13/M15 A3021

More Conditions Fewer Conditions

10-Day Weather Forecast

Almanac

Astronomy

Dec. 20, 2014 Rise Set
Actual Time
Civil Twilight
Nautical Twilight
Astronomical Twilight
Moon
Length of Visible Light
Length of Day
Tomorrow will be .
, % of the Moon is Illuminated

Today's Extremes

State Highs State Lows

Community

WunderPhotos

Upload Photos

1,779,163 photos uploaded!

WunderBlogs® & News

Nearby

Air Quality

  Air Quality AQ Index Pollutant
Not available.

Snow Depth

Station Depth Elevation

Earthquake Activity

City Distance Mag. Time & Date
Minimum magnitude displayed is 2.5.

Coastal Water Temperatures

Place Temperature

Nearby Weather Stations